Time;durP1;ratioP1;P1;durP2;ratioP2;P2;SDS_P1;SDS_P2;PMS_P1;PMS_P2;Temp;Humidity;BMP_temperature;BMP_pressure;BME280_temperature;BME280_humidity;BME280_pressure;Samples;Min_cycle;Max_cycle;Signal;HPM_P1;HPM_P2
2022/11/20 00:01:37;;;;;;;50.08;25.63;;;-0.20;61.30;;;;;;6054314;23;114041;-82
2022/11/20 00:04:04;;;;;;;51.80;26.40;;;-0.10;61.30;;;;;;6053616;23;115392;-82
2022/11/20 00:06:31;;;;;;;56.08;27.77;;;0.00;61.50;;;;;;6051825;23;114779;-82
2022/11/20 00:09:05;;;;;;;50.92;25.98;;;0.00;61.40;;;;;;6054545;23;114323;-82
2022/11/20 00:11:39;;;;;;;54.80;27.75;;;0.20;61.30;;;;;;6054162;23;114404;-81
2022/11/20 00:14:09;;;;;;;54.50;28.10;;;0.10;61.10;;;;;;6028366;23;114833;-83
2022/11/20 00:16:36;;;;;;;56.85;28.80;;;0.20;61.20;;;;;;6027914;23;115817;-82
2022/11/20 00:19:14;;;;;;;51.67;26.95;;;0.20;61.10;;;;;;6052983;23;114332;-83
2022/11/20 00:21:41;;;;;;;54.55;28.02;;;0.20;61.20;;;;;;6052947;23;114486;-83
2022/11/20 00:24:09;;;;;;;58.05;28.75;;;0.30;61.10;;;;;;6050895;23;114782;-84
2022/11/20 00:26:36;;;;;;;60.85;30.73;;;0.30;60.90;;;;;;6027853;23;114566;-83
2022/11/20 00:29:03;;;;;;;62.75;30.42;;;0.30;60.80;;;;;;6054390;23;114341;-83
2022/11/20 00:31:30;;;;;;;52.70;27.83;;;0.20;60.90;;;;;;6054604;23;114136;-83
2022/11/20 00:33:57;;;;;;;57.97;29.50;;;0.20;60.90;;;;;;6003753;23;118426;-83
2022/11/20 00:36:25;;;;;;;57.00;28.30;;;0.20;60.90;;;;;;6053336;23;115320;-84
2022/11/20 00:38:53;;;;;;;54.55;27.23;;;0.10;60.90;;;;;;6004970;23;114341;-84
2022/11/20 00:41:21;;;;;;;50.03;25.55;;;0.10;61.10;;;;;;6052878;23;114382;-83
2022/11/20 00:43:48;;;;;;;50.97;25.30;;;0.10;61.00;;;;;;6053188;23;115063;-84
2022/11/20 00:46:16;;;;;;;52.85;27.13;;;0.10;60.90;;;;;;6053287;23;114561;-83
2022/11/20 00:48:43;;;;;;;52.47;27.20;;;0.10;61.00;;;;;;6028251;23;115049;-83
2022/11/20 00:51:11;;;;;;;53.50;26.55;;;0.00;61.10;;;;;;6053209;23;114215;-83
2022/11/20 00:53:38;;;;;;;52.95;26.45;;;0.00;61.30;;;;;;6027764;23;114952;-82
2022/11/20 00:56:07;;;;;;;49.40;27.60;;;0.00;61.20;;;;;;6051921;23;116242;-82
2022/11/20 00:58:35;;;;;;;56.33;27.85;;;-0.10;61.20;;;;;;6052978;23;114199;-82
2022/11/20 01:01:10;;;;;;;59.33;29.48;;;-0.10;61.40;;;;;;6052827;23;114191;-81
2022/11/20 01:03:42;;;;;;;53.20;27.58;;;-0.10;61.50;;;;;;6051844;23;115014;-82
2022/11/20 01:06:20;;;;;;;58.30;27.02;;;-0.10;61.50;;;;;;6052121;23;114621;-81
2022/11/20 01:08:47;;;;;;;60.70;29.17;;;-0.20;61.50;;;;;;6054180;23;114410;-81
2022/11/20 01:11:19;;;;;;;53.55;27.02;;;-0.20;61.60;;;;;;6052695;23;114223;-81
2022/11/20 01:13:49;;;;;;;61.08;29.80;;;-0.20;61.90;;;;;;6050944;23;114917;-81
2022/11/20 01:16:21;;;;;;;57.08;28.55;;;-0.20;61.90;;;;;;6028041;23;114925;-81
2022/11/20 01:18:49;;;;;;;56.08;30.02;;;-0.20;62.20;;;;;;6029229;23;114194;-81
2022/11/20 01:21:18;;;;;;;56.47;29.65;;;-0.30;62.30;;;;;;6028798;23;114359;-81
2022/11/20 01:23:45;;;;;;;60.85;29.95;;;-0.30;62.50;;;;;;6051604;23;114757;-81
2022/11/20 01:26:14;;;;;;;66.15;31.55;;;-0.20;62.50;;;;;;6051439;23;114663;-82
2022/11/20 01:28:41;;;;;;;55.65;31.52;;;-0.30;62.40;;;;;;6052704;23;114270;-81
2022/11/20 01:31:12;;;;;;;60.72;30.58;;;-0.20;62.50;;;;;;6054667;23;114718;-81
2022/11/20 01:33:40;;;;;;;63.42;30.58;;;-0.30;62.50;;;;;;6052965;23;116007;-81
2022/11/20 01:36:07;;;;;;;57.95;30.35;;;-0.30;62.50;;;;;;6027566;23;115383;-85
2022/11/20 01:38:34;;;;;;;68.90;31.48;;;-0.30;62.70;;;;;;6051875;23;115067;-83
2022/11/20 01:41:01;;;;;;;63.88;32.28;;;-0.30;62.70;;;;;;6053351;23;114249;-83
2022/11/20 01:43:28;;;;;;;63.47;31.90;;;-0.30;62.70;;;;;;6027245;23;114801;-84
2022/11/20 01:45:58;;;;;;;71.38;34.10;;;-0.30;62.60;;;;;;6051399;23;114520;-84
2022/11/20 01:48:30;;;;;;;68.10;33.63;;;-0.30;62.50;;;;;;6053541;23;114414;-84
2022/11/20 01:50:57;;;;;;;68.00;31.95;;;-0.40;62.80;;;;;;6028611;23;114316;-84
2022/11/20 01:53:26;;;;;;;79.35;35.95;;;-0.40;62.80;;;;;;6051051;23;114909;-83
2022/11/20 01:55:54;;;;;;;74.40;37.03;;;-0.50;62.70;;;;;;6051223;23;114689;-84
2022/11/20 01:58:25;;;;;;;72.95;34.95;;;-0.50;62.80;;;;;;6051813;23;114384;-82
2022/11/20 02:00:52;;;;;;;70.00;34.33;;;-0.50;62.90;;;;;;6053419;23;114238;-82
2022/11/20 02:03:19;;;;;;;69.95;35.38;;;-0.50;62.90;;;;;;6025893;23;116927;-82
2022/11/20 02:06:09;;;;;;;74.60;37.42;;;-0.60;62.90;;;;;;6050885;23;115120;-83
2022/11/20 02:08:37;;;;;;;71.32;36.80;;;-0.60;63.00;;;;;;6053088;23;114413;-84
2022/11/20 02:11:04;;;;;;;68.15;34.83;;;-0.60;63.10;;;;;;6027582;23;114779;-84
2022/11/20 02:13:44;;;;;;;70.95;34.80;;;-0.60;63.40;;;;;;6026785;23;115114;-83
2022/11/20 02:16:30;;;;;;;77.65;36.00;;;-0.60;63.60;;;;;;6029212;23;116270;-82
2022/11/20 02:18:58;;;;;;;75.28;36.90;;;-0.60;63.70;;;;;;6052013;23;114202;-82
2022/11/20 02:21:31;;;;;;;70.00;34.33;;;-0.60;63.60;;;;;;6052863;23;114408;-82
2022/11/20 02:24:04;;;;;;;73.47;34.92;;;-0.60;63.60;;;;;;6052901;23;114871;-81
2022/11/20 02:26:42;;;;;;;74.18;34.95;;;-0.60;63.60;;;;;;6027517;23;114640;-83
2022/11/20 02:29:14;;;;;;;83.15;37.25;;;-0.70;63.80;;;;;;6029925;23;114105;-81
2022/11/20 02:31:42;;;;;;;77.07;36.10;;;-0.70;63.80;;;;;;6052151;23;114193;-82
2022/11/20 02:34:09;;;;;;;79.43;35.78;;;-0.70;63.90;;;;;;6027565;23;114769;-81
2022/11/20 02:36:36;;;;;;;85.57;38.05;;;-0.70;64.00;;;;;;6051358;23;114997;-81
2022/11/20 02:39:04;;;;;;;82.65;38.40;;;-0.70;64.10;;;;;;6052188;23;114066;-81
2022/11/20 02:41:33;;;;;;;88.30;39.92;;;-0.70;64.10;;;;;;6053320;23;114081;-81
2022/11/20 02:44:00;;;;;;;94.05;39.53;;;-0.70;63.90;;;;;;6050913;23;114792;-81
2022/11/20 02:46:27;;;;;;;90.10;39.67;;;-0.70;63.90;;;;;;6051313;23;115346;-81
2022/11/20 02:48:54;;;;;;;77.05;37.33;;;-0.70;64.10;;;;;;6028136;23;114175;-81
2022/11/20 02:51:21;;;;;;;85.82;38.15;;;-0.70;64.30;;;;;;6052330;23;114250;-81
2022/11/20 02:53:48;;;;;;;83.85;37.20;;;-0.70;64.30;;;;;;6050334;23;115174;-82
2022/11/20 02:56:15;;;;;;;81.72;39.17;;;-0.70;64.20;;;;;;6052513;23;114605;-82
2022/11/20 02:58:42;;;;;;;90.07;39.15;;;-0.60;64.10;;;;;;6004296;23;114191;-82
2022/11/20 03:01:09;;;;;;;78.68;36.53;;;-0.60;64.00;;;;;;6052285;23;114276;-82
2022/11/20 03:03:36;;;;;;;79.18;39.08;;;-0.60;63.90;;;;;;6052100;23;114841;-82
2022/11/20 03:06:10;;;;;;;83.25;39.78;;;-0.60;63.70;;;;;;6051803;23;114650;-82
2022/11/20 03:09:00;;;;;;;68.43;33.55;;;-0.70;63.90;;;;;;6054800;23;114375;-81
2022/11/20 03:11:28;;;;;;;69.40;33.83;;;-0.70;64.00;;;;;;6054832;23;114571;-82
2022/11/20 03:13:55;;;;;;;68.35;32.28;;;-0.70;64.00;;;;;;6051688;23;115181;-82
2022/11/20 03:16:22;;;;;;;72.03;35.15;;;-0.70;63.90;;;;;;6027669;23;117330;-82
2022/11/20 03:18:49;;;;;;;71.22;32.60;;;-0.70;64.10;;;;;;6052620;23;114274;-83
2022/11/20 03:21:16;;;;;;;69.10;34.42;;;-0.70;64.00;;;;;;6053177;23;114159;-83
2022/11/20 03:23:43;;;;;;;65.57;35.92;;;-0.70;64.00;;;;;;6027599;23;115800;-84
2022/11/20 03:26:15;;;;;;;73.00;38.15;;;-0.70;64.10;;;;;;6003743;23;117474;-82
2022/11/20 03:28:46;;;;;;;69.57;34.45;;;-0.70;64.00;;;;;;6030118;23;114306;-82
2022/11/20 03:31:14;;;;;;;69.47;35.63;;;-0.70;64.20;;;;;;6030041;23;114102;-82
2022/11/20 03:33:41;;;;;;;63.20;33.35;;;-0.70;64.30;;;;;;6027862;23;114922;-81
2022/11/20 03:36:10;;;;;;;78.40;36.83;;;-0.70;64.40;;;;;;6052431;23;115283;-84
2022/11/20 03:38:37;;;;;;;80.90;36.03;;;-0.60;64.40;;;;;;6053403;23;114280;-83
2022/11/20 03:41:06;;;;;;;66.68;34.58;;;-0.60;64.30;;;;;;6028811;23;114608;-82
2022/11/20 03:43:33;;;;;;;69.90;36.45;;;-0.50;64.10;;;;;;6051898;23;115328;-81
2022/11/20 03:46:01;;;;;;;79.82;40.58;;;-0.60;64.10;;;;;;6052042;23;114770;-81
2022/11/20 03:48:28;;;;;;;78.78;39.60;;;-0.60;64.00;;;;;;6053365;23;113924;-81
2022/11/20 03:51:11;;;;;;;81.35;41.70;;;-0.60;64.40;;;;;;6028919;23;114184;-81
2022/11/20 03:53:39;;;;;;;76.03;37.83;;;-0.60;64.50;;;;;;6051765;23;114781;-81
2022/11/20 03:56:07;;;;;;;72.88;36.13;;;-0.60;64.60;;;;;;6028275;23;114579;-81
2022/11/20 03:58:36;;;;;;;73.78;37.75;;;-0.50;64.60;;;;;;6054457;23;114248;-81
2022/11/20 04:01:14;;;;;;;66.47;34.95;;;-0.50;64.50;;;;;;6030433;23;114484;-81
2022/11/20 04:03:42;;;;;;;71.10;36.58;;;-0.50;64.70;;;;;;6051845;23;115492;-82
2022/11/20 04:06:10;;;;;;;74.07;38.72;;;-0.40;64.70;;;;;;6028619;23;114689;-81
2022/11/20 04:08:37;;;;;;;80.50;38.47;;;-0.40;64.70;;;;;;6052787;23;114407;-82
2022/11/20 04:11:14;;;;;;;75.97;38.00;;;-0.40;64.60;;;;;;6028917;23;115047;-83
2022/11/20 04:13:41;;;;;;;80.97;39.70;;;-0.30;64.60;;;;;;6053845;23;114788;-82
2022/11/20 04:16:09;;;;;;;79.72;39.72;;;-0.30;64.40;;;;;;6052172;23;114639;-82
2022/11/20 04:18:36;;;;;;;80.55;40.67;;;-0.30;64.30;;;;;;6029502;23;114934;-82
2022/11/20 04:21:04;;;;;;;74.70;38.55;;;-0.30;64.20;;;;;;6054601;23;114413;-81
2022/11/20 04:23:31;;;;;;;77.82;38.95;;;-0.20;64.20;;;;;;6028336;23;114775;-82
2022/11/20 04:26:08;;;;;;;75.90;38.15;;;-0.20;64.30;;;;;;6052778;23;114870;-82
2022/11/20 04:28:36;;;;;;;69.75;36.53;;;-0.20;64.50;;;;;;6053007;23;114160;-81
2022/11/20 04:31:04;;;;;;;81.88;41.15;;;-0.20;64.60;;;;;;6029488;23;114587;-82
2022/11/20 04:33:31;;;;;;;85.18;40.75;;;-0.20;64.40;;;;;;6027342;23;114995;-82
2022/11/20 04:36:08;;;;;;;85.85;41.47;;;-0.20;64.20;;;;;;6053286;23;115867;-82
2022/11/20 04:38:35;;;;;;;82.65;39.90;;;-0.20;64.20;;;;;;6030328;23;114278;-82
2022/11/20 04:41:03;;;;;;;77.72;41.35;;;-0.20;64.40;;;;;;6052389;23;114336;-82
2022/11/20 04:43:31;;;;;;;82.07;44.00;;;-0.20;64.40;;;;;;6027808;23;115022;-82
2022/11/20 04:45:58;;;;;;;86.72;43.00;;;-0.20;64.30;;;;;;6051669;23;114648;-82
2022/11/20 04:48:26;;;;;;;90.68;45.20;;;-0.20;64.20;;;;;;6028842;23;114318;-82
2022/11/20 04:50:53;;;;;;;85.10;44.10;;;-0.20;64.20;;;;;;6054531;23;114100;-85
2022/11/20 04:53:20;;;;;;;92.07;44.40;;;-0.20;64.20;;;;;;6052157;23;115324;-83
2022/11/20 04:55:47;;;;;;;76.93;40.30;;;-0.30;64.20;;;;;;6027535;23;114576;-83
2022/11/20 04:58:14;;;;;;;84.88;43.10;;;-0.20;64.30;;;;;;6052361;23;114360;-82
2022/11/20 05:00:41;;;;;;;83.85;39.65;;;-0.30;64.20;;;;;;6054232;23;114162;-82
2022/11/20 05:03:09;;;;;;;76.28;38.65;;;-0.30;64.30;;;;;;6053122;23;114794;-81
2022/11/20 05:05:36;;;;;;;89.18;44.35;;;-0.30;64.30;;;;;;6051702;23;114544;-81
2022/11/20 05:08:03;;;;;;;86.82;43.75;;;-0.40;64.20;;;;;;6052853;23;114359;-81
2022/11/20 05:10:30;;;;;;;86.10;41.53;;;-0.50;64.70;;;;;;6077261;23;114299;-82
2022/11/20 05:12:57;;;;;;;84.60;42.40;;;-0.60;65.00;;;;;;6051738;23;114782;-82
2022/11/20 05:15:24;;;;;;;96.35;45.63;;;-0.60;64.80;;;;;;6053508;23;114680;-82
2022/11/20 05:17:51;;;;;;;88.15;44.03;;;-0.60;65.00;;;;;;6028424;23;114257;-82
2022/11/20 05:20:19;;;;;;;92.15;44.72;;;-0.70;65.10;;;;;;6052842;23;114108;-81
2022/11/20 05:22:46;;;;;;;104.25;45.92;;;-0.70;65.10;;;;;;6052403;23;114878;-81
2022/11/20 05:25:13;;;;;;;87.68;43.38;;;-0.80;65.30;;;;;;6051006;23;114604;-82
2022/11/20 05:27:39;;;;;;;91.72;45.88;;;-0.70;65.30;;;;;;6053928;23;114303;-82
2022/11/20 05:30:07;;;;;;;95.80;46.15;;;-0.60;65.10;;;;;;6052274;23;114467;-82
2022/11/20 05:32:34;;;;;;;85.18;45.00;;;-0.60;65.00;;;;;;6026967;23;117919;-82
2022/11/20 05:35:01;;;;;;;81.20;41.50;;;-0.50;64.90;;;;;;6051181;23;115355;-82
2022/11/20 05:37:28;;;;;;;84.40;40.15;;;-0.50;64.70;;;;;;6054292;23;114213;-82
2022/11/20 05:39:55;;;;;;;85.70;41.67;;;-0.50;64.60;;;;;;6053209;23;114431;-82
2022/11/20 05:42:31;;;;;;;85.25;41.05;;;-0.50;64.70;;;;;;6052679;23;115166;-82
2022/11/20 05:45:10;;;;;;;85.65;40.78;;;-0.50;64.70;;;;;;6052927;23;115372;-82
2022/11/20 05:47:37;;;;;;;76.32;37.72;;;-0.50;64.60;;;;;;6052462;23;115173;-82
2022/11/20 05:50:04;;;;;;;75.70;40.10;;;-0.50;64.80;;;;;;6052712;23;114525;-81
2022/11/20 05:52:31;;;;;;;81.38;39.28;;;-0.40;64.90;;;;;;6053469;23;115327;-82
2022/11/20 05:55:01;;;;;;;76.63;38.13;;;-0.40;64.90;;;;;;6050807;23;114703;-82
2022/11/20 05:57:28;;;;;;;75.00;39.75;;;-0.40;64.90;;;;;;6052006;23;114471;-81
2022/11/20 05:59:55;;;;;;;88.63;40.15;;;-0.40;64.90;;;;;;6052111;23;114449;-82
2022/11/20 06:02:22;;;;;;;81.22;38.60;;;-0.40;64.80;;;;;;6050164;23;117522;-82
2022/11/20 06:04:50;;;;;;;73.53;37.75;;;-0.40;64.60;;;;;;6052367;23;115005;-80
2022/11/20 06:07:17;;;;;;;78.40;38.20;;;-0.60;64.60;;;;;;6053247;23;114152;-82
2022/11/20 06:09:44;;;;;;;69.57;35.75;;;-0.70;65.00;;;;;;6051555;23;114432;-83
2022/11/20 06:12:13;;;;;;;79.90;37.33;;;-0.60;65.20;;;;;;6051516;23;114986;-83
2022/11/20 06:14:40;;;;;;;76.88;40.13;;;-0.80;65.10;;;;;;6052382;23;115068;-81
2022/11/20 06:17:07;;;;;;;77.68;39.47;;;-0.80;65.50;;;;;;6051851;23;114239;-82
2022/11/20 06:19:34;;;;;;;80.40;39.00;;;-0.80;65.60;;;;;;6051276;23;114427;-82
2022/11/20 06:22:01;;;;;;;82.97;41.10;;;-0.70;65.50;;;;;;6051816;23;116141;-83
2022/11/20 06:24:28;;;;;;;73.57;37.05;;;-0.70;65.40;;;;;;6052118;23;114828;-83
2022/11/20 06:26:55;;;;;;;87.45;42.95;;;-0.80;65.50;;;;;;6029390;23;114405;-83
2022/11/20 06:29:22;;;;;;;87.47;43.20;;;-0.80;65.50;;;;;;6050695;23;115005;-82
2022/11/20 06:31:50;;;;;;;87.22;43.97;;;-0.80;65.50;;;;;;6051889;23;114843;-83
2022/11/20 06:34:17;;;;;;;95.50;43.08;;;-0.80;65.40;;;;;;6051686;23;114564;-82
2022/11/20 06:36:44;;;;;;;85.63;42.28;;;-0.70;65.30;;;;;;6053459;23;114235;-82
2022/11/20 06:39:11;;;;;;;95.00;44.10;;;-0.70;65.30;;;;;;6054822;23;114868;-82
2022/11/20 06:41:38;;;;;;;82.15;40.88;;;-0.80;65.30;;;;;;6053691;23;114945;-83
2022/11/20 06:44:05;;;;;;;91.45;45.13;;;-0.70;65.20;;;;;;6053661;23;117411;-82
2022/11/20 06:46:32;;;;;;;90.97;44.17;;;-0.80;65.50;;;;;;6031083;23;114802;-82
2022/11/20 06:48:59;;;;;;;94.72;43.63;;;-0.70;65.70;;;;;;6055936;23;114292;-83
2022/11/20 06:51:26;;;;;;;82.25;40.47;;;-0.60;65.70;;;;;;6053619;23;114921;-82
2022/11/20 06:53:53;;;;;;;76.50;41.00;;;-0.60;65.60;;;;;;6055459;23;114585;-83
2022/11/20 06:56:20;;;;;;;77.28;39.67;;;-0.60;65.70;;;;;;6054813;23;114484;-83
2022/11/20 06:58:47;;;;;;;85.63;42.83;;;-0.60;66.10;;;;;;6055724;23;114579;-83
2022/11/20 07:01:14;;;;;;;82.72;41.35;;;-0.50;66.10;;;;;;6053572;23;114904;-82
2022/11/20 07:03:41;;;;;;;84.22;40.63;;;-0.40;65.90;;;;;;6029109;23;118481;-82
2022/11/20 07:06:08;;;;;;;78.65;42.03;;;-0.40;65.80;;;;;;6055267;23;114268;-83
2022/11/20 07:08:35;;;;;;;84.28;39.92;;;-0.30;65.60;;;;;;6054419;23;114373;-83
2022/11/20 07:11:05;;;;;;;79.45;39.40;;;-0.20;65.20;;;;;;6052966;23;114805;-82
2022/11/20 07:13:32;;;;;;;77.93;40.50;;;-0.20;65.10;;;;;;6029056;23;115330;-82
2022/11/20 07:16:00;;;;;;;81.80;39.15;;;-0.30;65.10;;;;;;6053693;23;114825;-83
2022/11/20 07:18:27;;;;;;;80.88;39.08;;;-0.30;65.10;;;;;;6056504;23;113992;-82
2022/11/20 07:20:55;;;;;;;76.50;38.70;;;-0.20;65.00;;;;;;6055202;23;114839;-82
2022/11/20 07:23:22;;;;;;;75.50;37.85;;;-0.20;64.90;;;;;;6053600;23;114597;-83
2022/11/20 07:25:49;;;;;;;74.80;38.13;;;-0.10;64.90;;;;;;6054665;23;114329;-82
2022/11/20 07:28:16;;;;;;;74.82;37.83;;;-0.10;65.00;;;;;;6006325;23;114806;-82
2022/11/20 07:30:43;;;;;;;77.65;38.30;;;0.00;64.80;;;;;;6029512;23;115365;-83
2022/11/20 07:33:10;;;;;;;71.93;38.03;;;0.00;65.00;;;;;;6005521;23;114806;-82
2022/11/20 07:35:37;;;;;;;75.68;37.20;;;0.00;65.10;;;;;;6054433;23;114466;-82
2022/11/20 07:38:04;;;;;;;82.70;40.67;;;0.10;65.30;;;;;;6054729;23;114419;-82
2022/11/20 07:40:31;;;;;;;77.53;38.33;;;0.20;65.10;;;;;;6054704;23;115179;-83
2022/11/20 07:42:58;;;;;;;78.50;36.13;;;0.20;65.00;;;;;;6053395;23;114923;-82
2022/11/20 07:45:25;;;;;;;76.07;37.38;;;0.20;64.90;;;;;;6054438;23;114562;-83
2022/11/20 07:47:55;;;;;;;82.75;39.17;;;0.30;64.70;;;;;;6054206;23;114324;-82
2022/11/20 07:50:22;;;;;;;85.43;40.97;;;0.30;64.60;;;;;;6051048;23;114862;-82
2022/11/20 07:52:49;;;;;;;78.88;40.03;;;0.40;64.60;;;;;;6053072;23;115471;-83
2022/11/20 07:55:16;;;;;;;88.45;42.42;;;0.40;64.60;;;;;;6054079;23;114295;-84
2022/11/20 07:57:43;;;;;;;93.10;44.15;;;0.50;64.60;;;;;;6052739;23;114320;-83
2022/11/20 08:00:11;;;;;;;94.93;46.22;;;0.50;64.50;;;;;;6051527;23;115129;-82
2022/11/20 08:02:41;;;;;;;100.25;48.58;;;0.50;64.70;;;;;;6052809;23;115627;-83
2022/11/20 08:05:09;;;;;;;111.32;54.25;;;0.50;64.60;;;;;;6052217;23;114420;-82
2022/11/20 08:07:40;;;;;;;107.22;53.53;;;0.60;64.60;;;;;;6052906;23;114386;-82
2022/11/20 08:10:08;;;;;;;110.40;53.00;;;0.60;64.60;;;;;;6028090;23;114837;-83
2022/11/20 08:15:20;;;;;;;108.82;51.00;;;0.60;64.60;;;;;;6052613;23;114281;-82
2022/11/20 08:17:47;;;;;;;104.78;54.72;;;0.60;64.70;;;;;;6053934;23;114599;-82
2022/11/20 08:20:35;;;;;;;107.40;50.33;;;0.70;64.50;;;;;;6052193;23;114818;-83
2022/11/20 08:23:03;;;;;;;100.63;52.88;;;0.70;64.40;;;;;;6052471;23;114570;-82
2022/11/20 08:25:30;;;;;;;98.93;48.38;;;0.70;64.20;;;;;;6054073;23;114307;-83
2022/11/20 08:27:58;;;;;;;106.63;54.25;;;0.70;64.30;;;;;;6054968;23;115023;-85
2022/11/20 08:30:27;;;;;;;86.53;41.45;;;0.70;64.80;;;;;;6029182;23;114820;-83
2022/11/20 08:32:54;;;;;;;81.13;40.65;;;0.70;65.20;;;;;;6051931;23;114634;-84
2022/11/20 08:35:21;;;;;;;79.50;38.85;;;0.70;65.10;;;;;;6052147;23;114153;-83
2022/11/20 08:37:48;;;;;;;73.90;35.85;;;0.70;64.70;;;;;;6051973;23;114329;-83
2022/11/20 08:40:16;;;;;;;56.08;28.65;;;0.70;64.40;;;;;;6052372;23;114847;-82
2022/11/20 08:42:49;;;;;;;48.83;24.83;;;0.80;64.10;;;;;;6027556;23;115237;-83
2022/11/20 08:45:17;;;;;;;52.58;25.70;;;0.80;63.20;;;;;;6052310;23;114594;-83
2022/11/20 08:47:44;;;;;;;45.40;25.05;;;0.70;63.30;;;;;;6028579;23;114341;-83
2022/11/20 08:50:12;;;;;;;50.05;26.00;;;0.70;63.20;;;;;;6052982;23;114998;-83
2022/11/20 08:52:39;;;;;;;51.50;25.95;;;0.70;63.10;;;;;;6054986;23;114755;-82
2022/11/20 08:55:08;;;;;;;39.88;21.65;;;0.80;62.90;;;;;;6056156;23;114069;-83
2022/11/20 08:57:36;;;;;;;45.70;23.63;;;0.80;62.60;;;;;;6065105;23;114174;-83
2022/11/20 09:00:06;;;;;;;45.20;23.50;;;0.90;62.70;;;;;;6035066;23;115292;-83
2022/11/20 09:02:35;;;;;;;41.95;22.60;;;0.90;62.50;;;;;;6052917;23;115999;-82
2022/11/20 09:05:02;;;;;;;54.30;28.75;;;0.90;62.40;;;;;;6052661;23;114351;-82
2022/11/20 09:07:30;;;;;;;56.58;29.20;;;0.90;62.10;;;;;;6054570;23;114730;-82
2022/11/20 09:09:57;;;;;;;56.25;29.95;;;0.80;61.80;;;;;;6051023;23;115462;-82
2022/11/20 09:12:44;;;;;;;52.55;28.98;;;0.70;61.90;;;;;;6031065;23;114748;-82
2022/11/20 09:15:11;;;;;;;57.15;28.20;;;0.60;61.70;;;;;;6054195;23;114296;-82
2022/11/20 09:17:38;;;;;;;54.53;27.42;;;0.60;62.40;;;;;;6052227;23;114187;-82
2022/11/20 09:20:05;;;;;;;52.70;27.95;;;0.60;62.50;;;;;;6052098;23;115416;-82
2022/11/20 09:22:33;;;;;;;55.92;28.65;;;0.70;62.50;;;;;;6051582;23;116581;-83
2022/11/20 09:25:00;;;;;;;58.78;28.52;;;0.70;62.40;;;;;;6050912;23;114328;-83
2022/11/20 09:27:27;;;;;;;55.33;28.08;;;0.80;62.30;;;;;;6053302;23;114530;-82
2022/11/20 09:29:53;;;;;;;57.97;31.13;;;0.90;62.20;;;;;;6051632;23;114725;-83
2022/11/20 09:32:20;;;;;;;54.45;28.13;;;0.90;62.10;;;;;;6051436;23;115704;-83
2022/11/20 09:34:47;;;;;;;58.80;30.55;;;1.00;61.80;;;;;;6054386;23;114164;-82
2022/11/20 09:37:14;;;;;;;53.85;29.70;;;0.80;61.60;;;;;;6053719;23;114065;-83
2022/11/20 09:39:41;;;;;;;50.67;25.67;;;0.90;62.10;;;;;;6052887;23;114811;-83
2022/11/20 09:42:32;;;;;;;43.70;23.50;;;0.90;61.90;;;;;;6054466;23;114733;-83
2022/11/20 09:45:05;;;;;;;50.47;24.98;;;1.00;61.70;;;;;;6032346;23;114648;-80
2022/11/20 09:47:48;;;;;;;47.88;23.27;;;1.10;61.70;;;;;;6053510;23;114202;-82
2022/11/20 09:50:40;;;;;;;53.22;27.17;;;1.20;61.90;;;;;;6052192;23;114911;-83
2022/11/20 09:53:10;;;;;;;66.60;31.00;;;1.30;62.00;;;;;;6053201;23;114718;-84
2022/11/20 09:55:40;;;;;;;64.63;29.98;;;1.30;61.70;;;;;;6052251;23;114484;-85
2022/11/20 09:58:11;;;;;;;65.85;31.23;;;1.40;61.30;;;;;;6052889;23;114013;-83
2022/11/20 10:00:38;;;;;;;60.90;31.20;;;1.50;61.00;;;;;;6051319;23;114999;-85
2022/11/20 10:03:21;;;;;;;64.78;31.73;;;1.60;61.40;;;;;;6003261;23;118440;-85
2022/11/20 10:05:51;;;;;;;69.13;32.88;;;1.70;61.30;;;;;;6030319;23;114359;-84
2022/11/20 10:08:30;;;;;;;64.50;31.25;;;1.70;61.40;;;;;;6052557;23;114293;-84
2022/11/20 10:11:26;;;;;;;63.08;32.13;;;1.90;61.20;;;;;;6028739;23;115044;-84
2022/11/20 10:14:29;;;;;;;61.50;29.73;;;1.90;60.40;;;;;;6050485;23;114562;-84
2022/11/20 10:17:02;;;;;;;63.50;31.80;;;2.00;60.40;;;;;;6054015;23;114304;-85
2022/11/20 10:19:42;;;;;;;61.90;31.63;;;2.00;60.60;;;;;;6030705;23;114090;-84
2022/11/20 10:23:01;;;;;;;55.13;29.17;;;2.20;60.50;;;;;;6055466;23;114944;-84
2022/11/20 10:25:43;;;;;;;55.60;27.25;;;2.30;60.20;;;;;;5965888;23;114769;-84
2022/11/20 10:28:40;;;;;;;44.70;24.67;;;2.40;60.10;;;;;;6021707;23;114430;-84
2022/11/20 10:31:14;;;;;;;43.10;23.02;;;2.40;60.10;;;;;;6031523;23;115204;-85
2022/11/20 10:33:42;;;;;;;51.80;26.05;;;2.50;60.00;;;;;;6028433;23;115182;-84
2022/11/20 10:36:33;;;;;;;45.50;22.83;;;2.50;60.10;;;;;;6053350;23;114735;-85
2022/11/20 10:39:14;;;;;;;46.70;23.58;;;2.50;60.00;;;;;;6005724;23;114419;-85
2022/11/20 10:41:41;;;;;;;50.25;27.30;;;2.60;59.80;;;;;;6031296;23;114207;-85
2022/11/20 10:45:00;;;;;;;49.15;26.67;;;2.60;59.90;;;;;;6051344;23;114943;-85
2022/11/20 10:47:04;;;;;;;53.00;27.67;;;2.60;59.60;;;;;;6052488;23;114740;-85
2022/11/20 10:49:32;;;;;;;50.42;27.58;;;2.60;60.00;;;;;;6051712;23;115571;-85
2022/11/20 10:52:19;;;;;;;51.17;24.33;;;2.60;60.10;;;;;;6052374;23;114296;-85
2022/11/20 10:55:14;;;;;;;48.97;24.63;;;2.70;60.00;;;;;;6052202;23;115593;-85
2022/11/20 10:58:13;;;;;;;52.28;25.52;;;2.70;60.00;;;;;;6026884;23;114833;-85
2022/11/20 11:00:42;;;;;;;54.55;28.33;;;2.80;60.10;;;;;;6053398;23;115178;-84
2022/11/20 11:03:22;;;;;;;49.47;25.33;;;2.80;60.10;;;;;;6053642;23;114301;-85
2022/11/20 11:06:31;;;;;;;42.30;23.67;;;2.90;60.10;;;;;;6051187;23;116053;-85
2022/11/20 11:09:01;;;;;;;44.05;22.75;;;2.90;60.10;;;;;;6040194;23;114618;-84
2022/11/20 11:11:30;;;;;;;50.30;23.98;;;2.90;60.00;;;;;;6052029;23;114192;-84
2022/11/20 11:14:10;;;;;;;44.75;23.73;;;2.80;60.00;;;;;;5980797;23;114428;-84
2022/11/20 11:16:52;;;;;;;49.58;25.27;;;2.90;60.30;;;;;;6050527;23;115001;-83
2022/11/20 11:19:19;;;;;;;44.60;23.02;;;2.90;60.40;;;;;;6075140;23;114671;-83
2022/11/20 11:21:54;;;;;;;44.53;23.98;;;2.80;60.60;;;;;;6053559;23;114116;-84
2022/11/20 11:24:22;;;;;;;46.47;24.17;;;2.90;60.70;;;;;;6029020;23;114422;-83
2022/11/20 11:27:13;;;;;;;51.50;25.88;;;3.00;60.80;;;;;;6052712;23;114730;-84
2022/11/20 11:29:44;;;;;;;37.72;20.60;;;3.10;60.80;;;;;;6052955;23;114815;-84
2022/11/20 11:32:14;;;;;;;42.65;22.85;;;3.10;60.70;;;;;;6053378;23;114281;-85
2022/11/20 11:34:41;;;;;;;39.45;21.80;;;3.10;60.70;;;;;;6083406;23;114136;-84
2022/11/20 11:37:17;;;;;;;40.67;19.67;;;3.20;60.90;;;;;;6057153;23;116949;-84
2022/11/20 11:39:44;;;;;;;37.47;20.92;;;3.20;60.70;;;;;;6029551;23;114769;-84
2022/11/20 11:42:17;;;;;;;38.95;20.15;;;3.20;60.30;;;;;;6052170;23;115350;-84
2022/11/20 11:47:31;;;;;;;33.95;17.92;;;3.20;60.40;;;;;;6031598;23;115452;-84
2022/11/20 11:50:14;;;;;;;39.13;20.50;;;3.20;60.50;;;;;;6053220;23;114646;-84
2022/11/20 11:53:02;;;;;;;41.90;20.70;;;3.30;60.20;;;;;;6008623;23;114327;-84
2022/11/20 11:55:46;;;;;;;37.05;19.08;;;3.30;60.30;;;;;;6053244;23;114490;-83
2022/11/20 11:58:19;;;;;;;;;;;3.40;60.30;;;;;;6030620;23;114806;-84
2022/11/20 12:00:56;;;;;;;33.67;17.90;;;3.40;60.70;;;;;;6052432;23;114579;-85
2022/11/20 12:03:42;;;;;;;38.15;20.00;;;3.40;60.50;;;;;;6052776;23;114316;-84
2022/11/20 12:06:16;;;;;;;39.88;19.77;;;3.60;60.40;;;;;;6029135;23;114345;-84
2022/11/20 12:08:55;;;;;;;36.10;20.42;;;3.60;60.50;;;;;;6027249;23;115068;-84
2022/11/20 12:11:52;;;;;;;37.13;19.95;;;3.70;60.30;;;;;;6027064;23;116471;-83
2022/11/20 12:14:39;;;;;;;39.85;19.88;;;3.90;60.20;;;;;;6046232;23;114281;-84
2022/11/20 12:17:10;;;;;;;40.20;21.42;;;3.90;59.90;;;;;;6054210;23;114138;-85
2022/11/20 12:19:37;;;;;;;34.50;18.67;;;4.00;60.00;;;;;;6004600;23;115945;-84
2022/11/20 12:22:30;;;;;;;33.33;17.88;;;4.00;59.80;;;;;;6053283;23;114775;-85
2022/11/20 12:25:14;;;;;;;28.65;16.38;;;4.10;59.50;;;;;;6052673;23;114335;-83
2022/11/20 12:27:51;;;;;;;;;;;4.10;59.30;;;;;;6030696;23;114056;-84
2022/11/20 12:30:19;;;;;;;29.83;15.77;;;3.90;59.70;;;;;;6053729;23;115101;-84
2022/11/20 12:33:17;;;;;;;31.17;14.73;;;3.90;59.70;;;;;;6028353;23;117778;-84
2022/11/20 12:35:59;;;;;;;28.60;14.63;;;4.00;59.50;;;;;;6028505;23;114422;-83
2022/11/20 12:38:29;;;;;;;32.22;15.82;;;3.90;59.60;;;;;;6056855;23;114294;-83
2022/11/20 12:48:10;;;;;;;31.67;16.42;;;3.90;59.60;;;;;;6055191;23;114311;-84
2022/11/20 12:51:01;;;;;;;34.95;17.85;;;3.90;60.00;;;;;;6023079;23;114415;-84
2022/11/20 12:53:48;;;;;;;30.05;16.15;;;3.90;60.00;;;;;;6022300;23;114893;-84
2022/11/20 12:56:44;;;;;;;29.40;16.15;;;4.00;60.00;;;;;;6049938;23;114671;-85